M I D A S
Marine Information and Data Acquisition System
Tripno 2061 of the Zeeleeuw from 2011-03-21 07:44:49 to 2011-03-21 15:48:16
Back to CruiseResearch ActivitiesStationsMapUnderway DataData graphs

EquipmentUnitsComment
TimeDGPSUTC
LatitudeDGPSDM.mWGS84
LongitudeDGPSDM.mWGS84
HeadingGyrodeg 
SOGDGPSknotsSpeed over ground
COGDGPSdegCourse over ground
DepthEcho soundermeters200 kHz
Missing or incorrect values are displayed as -999
Navigation data collected by the RV Zeeleeuw from 2011-03-21 07:44:43 to 2011-03-21 15:49:14
Time Latitude Longitude Heading SOG COG Depth
2011-03-21 07:45:49 51°13.677 2°55.896 108.7 3.6 288 -999
2011-03-21 07:46:48 51°13.692 2°55.797 95.7 3.7 278 -999
2011-03-21 07:47:48 51°13.702 2°55.78 45.4 0.3 7 4.9
2011-03-21 07:48:48 51°13.711 2°55.766 353 3.5 344 -999
2011-03-21 07:49:47 51°13.762 2°55.704 322.1 5.3 321 -999
2011-03-21 07:50:48 51°13.854 2°55.62 336.1 6.8 334 -999
2011-03-21 07:51:48 51°13.961 2°55.542 338.8 7.2 336 -999
2011-03-21 07:52:49 51°14.072 2°55.462 338.1 7.2 336 -999
2011-03-21 07:53:48 51°14.177 2°55.376 333.6 7.2 331 -999
2011-03-21 07:54:48 51°14.28 2°55.278 329.5 7.2 327 -999
2011-03-21 07:55:48 51°14.395 2°55.16 331 9.6 328 8.5
2011-03-21 07:56:47 51°14.536 2°55.013 329.9 10.6 324 9.9
2011-03-21 07:57:45 51°14.67 2°54.837 332.8 10.8 323 9.7
2011-03-21 07:58:45 51°14.828 2°54.661 335.6 12.2 330 9.7
2011-03-21 07:59:45 51°15.003 2°54.491 334 12.3 327 9.1
2011-03-21 08:00:45 51°15.16 2°54.277 324.8 12.5 320 9.6
2011-03-21 08:01:45 51°15.316 2°54.056 324 12.6 316 10
2011-03-21 08:02:45 51°15.477 2°53.843 331.1 12.6 321 10.1
2011-03-21 08:03:45 51°15.638 2°53.631 333.9 12.4 325 9.9
2011-03-21 08:04:45 51°15.807 2°53.442 332.2 12.4 325 10
2011-03-21 08:05:45 51°15.985 2°53.284 340.5 12.2 331 10
2011-03-21 08:06:45 51°16.16 2°53.12 339.8 12.1 332 10.3
2011-03-21 08:07:45 51°16.337 2°52.965 340 12 333 10.4
2011-03-21 08:08:45 51°16.515 2°52.82 337.6 12.1 332 10.2
2011-03-21 08:09:45 51°16.698 2°52.699 344.3 11.8 338 9.3
2011-03-21 08:10:45 51°16.871 2°52.567 339 11.5 333 8.3
2011-03-21 08:11:45 51°17.052 2°52.471 351.5 11.4 344 8.2
2011-03-21 08:12:45 51°17.229 2°52.353 341.4 11.7 335 8.7
2011-03-21 08:13:45 51°17.408 2°52.236 346.1 11.7 339 9.9
2011-03-21 08:14:45 51°17.585 2°52.111 345.3 11.5 338 9.9
2011-03-21 08:15:45 51°17.762 2°51.995 343.5 11.4 335 9.1
2011-03-21 08:16:45 51°17.937 2°51.868 346.6 11.8 339 8.7
2011-03-21 08:17:45 51°18.123 2°51.741 341.8 12.3 333 9.4
2011-03-21 08:18:45 51°18.31 2°51.607 344.8 12.4 336 10.7
2011-03-21 08:19:45 51°18.5 2°51.472 344.8 12.5 335 11.8
2011-03-21 08:20:45 51°18.688 2°51.326 345.3 12.6 334 12.8
2011-03-21 08:21:45 51°18.877 2°51.18 344.9 12.6 334 13.5
2011-03-21 08:22:45 51°19.063 2°51.027 345.4 12.5 334 13.8
2011-03-21 08:23:45 51°19.248 2°50.874 344.7 12.5 333 13.2
2011-03-21 08:24:45 51°19.434 2°50.721 345.2 12.5 334 11.9
2011-03-21 08:25:45 51°19.623 2°50.579 344.2 12.5 335 10.3
2011-03-21 08:26:45 51°19.813 2°50.435 343.8 12.8 335 12.2
2011-03-21 08:27:45 51°20.005 2°50.287 343.6 12.8 333 13.5
2011-03-21 08:28:45 51°20.197 2°50.134 344.3 13 333 16
2011-03-21 08:29:45 51°20.39 2°49.979 345.8 13 334 18.9
2011-03-21 08:30:45 51°20.587 2°49.839 347.4 13 335 21.4
2011-03-21 08:31:45 51°20.786 2°49.697 347.4 13.1 336 22.1
2011-03-21 08:32:45 51°20.984 2°49.555 346.7 13.1 335 22.1
2011-03-21 08:33:45 51°21.183 2°49.415 347.5 13.1 336 21.3
2011-03-21 08:34:45 51°21.383 2°49.278 348.2 13 338 20.8
2011-03-21 08:35:45 51°21.582 2°49.141 348.4 13.1 338 20.9
2011-03-21 08:36:45 51°21.783 2°49.002 347.4 13.1 337 22.5
2011-03-21 08:37:45 51°21.984 2°48.865 347.8 13.2 337 22.7
2011-03-21 08:38:45 51°22.188 2°48.732 351.1 13 344 22.5
2011-03-21 08:39:45 51°22.394 2°48.697 6.7 12 358 17.9
2011-03-21 08:40:45 51°22.593 2°48.69 4.8 11.8 357 17.3
2011-03-21 08:41:45 51°22.788 2°48.673 4.6 11.7 356 15.9
2011-03-21 08:42:45 51°22.983 2°48.652 5.3 11.8 356 18.4
2011-03-21 08:43:45 51°23.178 2°48.62 358.8 12 344 20.1
2011-03-21 08:44:45 51°23.366 2°48.479 345.8 12.6 336 21.3
2011-03-21 08:45:45 51°23.551 2°48.311 339 12.9 329 20.2
2011-03-21 08:46:45 51°23.733 2°48.136 339.3 12.7 329 21.4
2011-03-21 08:47:45 51°23.907 2°47.942 335.1 12.7 325 19.1
2011-03-21 08:48:45 51°24.078 2°47.742 334.6 12.7 324 23.4
2011-03-21 08:49:45 51°24.252 2°47.548 334 12.8 325 25.4
2011-03-21 08:50:45 51°24.424 2°47.346 335.2 12.8 324 28.3
2011-03-21 08:51:45 51°24.596 2°47.136 334.8 13 323 30.6
2011-03-21 08:52:45 51°24.769 2°46.925 335.4 13.1 323 28.2
2011-03-21 08:53:45 51°24.942 2°46.715 335.6 13 323 24.2
2011-03-21 08:54:45 51°25.114 2°46.506 335.6 13 323 24.3
2011-03-21 08:55:45 51°25.29 2°46.306 341.2 12.7 331 24.9
2011-03-21 08:56:45 51°25.477 2°46.163 344.5 12.5 333 23.2
2011-03-21 08:57:45 51°25.66 2°46.008 343.5 12.4 332 22.9
2011-03-21 08:58:45 51°25.844 2°45.866 346.8 12.3 336 25.5
2011-03-21 08:59:45 51°26.03 2°45.73 346.6 12.2 336 25.7
2011-03-21 09:00:45 51°26.215 2°45.592 346.3 12.2 335 25.8
2011-03-21 09:01:45 51°26.399 2°45.45 346.7 12.3 335 27.1
2011-03-21 09:02:45 51°26.585 2°45.306 347.3 12.5 334 28.1
2011-03-21 09:03:45 51°26.773 2°45.163 347.4 12.5 335 27.5
2011-03-21 09:04:45 51°26.962 2°45.021 346.3 12.5 335 27.8
2011-03-21 09:05:45 51°27.152 2°44.888 348.5 12.4 336 26.6
2011-03-21 09:06:45 51°27.341 2°44.754 348.4 12.4 336 26.2
2011-03-21 09:07:45 51°27.53 2°44.624 347.3 12.5 335 27.1
2011-03-21 09:08:45 51°27.718 2°44.48 346.7 12.5 334 26.5
2011-03-21 09:09:45 51°27.907 2°44.332 347 12.6 335 27.1
2011-03-21 09:10:45 51°28.095 2°44.188 346.9 12.5 335 29.6
2011-03-21 09:11:45 51°28.284 2°44.053 346.2 12.3 336 29.1
2011-03-21 09:12:45 51°28.47 2°43.916 346 12.3 336 29.9
2011-03-21 09:13:45 51°28.656 2°43.782 346.8 12.2 336 29.4
2011-03-21 09:14:45 51°28.842 2°43.651 346.1 12.2 337 30.7
2011-03-21 09:15:45 51°29.025 2°43.511 342.7 12.2 332 28.6
2011-03-21 09:16:45 51°29.204 2°43.359 343.3 12.1 333 28.9
2011-03-21 09:17:45 51°29.383 2°43.207 344 12.3 332 29.7
2011-03-21 09:18:45 51°29.568 2°43.104 5.3 11.3 -999 31.7
2011-03-21 09:19:45 51°29.736 2°43.221 34.2 11 30 30.5
2011-03-21 09:20:45 51°29.904 2°43.339 26.6 11.1 20 32.1
2011-03-21 09:21:45 51°30.081 2°43.436 24.8 11.3 18 30.5
2011-03-21 09:22:45 51°30.257 2°43.527 24.6 11.1 17 33
2011-03-21 09:23:45 51°30.432 2°43.617 24.6 11 18 31.9
2011-03-21 09:24:45 51°30.607 2°43.704 23.3 11 17 31
2011-03-21 09:25:45 51°30.782 2°43.79 23.3 11 17 31.8
2011-03-21 09:26:45 51°30.958 2°43.876 23.2 11.1 17 33.2
2011-03-21 09:27:45 51°31.133 2°43.962 24.6 11 17 35.5
2011-03-21 09:28:45 51°31.309 2°44.045 23.1 11 16 34.9
2011-03-21 09:29:45 51°31.485 2°44.129 23.7 11 18 32.1
2011-03-21 09:30:45 51°31.661 2°44.208 23.2 11 15 34.5
2011-03-21 09:31:45 51°31.836 2°44.286 23 11 15 33.8
2011-03-21 09:32:45 51°32.012 2°44.363 23.7 11 16 32.3
2011-03-21 09:33:45 51°32.188 2°44.441 23.9 10.9 16 32.4
2011-03-21 09:34:45 51°32.363 2°44.52 23.5 11 16 31.9
2011-03-21 09:35:45 51°32.538 2°44.601 24 11 17 31.1
2011-03-21 09:36:45 51°32.714 2°44.685 22.3 11 15 29.9
2011-03-21 09:37:45 51°32.889 2°44.767 23.2 11 17 28.7
2011-03-21 09:38:45 51°33.065 2°44.851 23.2 11 17 28.4
2011-03-21 09:39:45 51°33.24 2°44.937 23.1 11 18 29.4
2011-03-21 09:40:45 51°33.416 2°45.021 23.2 11 16 28.7
2011-03-21 09:41:45 51°33.591 2°45.109 23.3 11 17 27.5
2011-03-21 09:42:45 51°33.765 2°45.195 23.1 11 16 26.4
2011-03-21 09:43:45 51°33.938 2°45.283 23.4 10.9 16 26.2
2011-03-21 09:44:45 51°34.112 2°45.373 23.2 11 18 25.8
2011-03-21 09:45:45 51°34.288 2°45.462 23.5 11.1 17 23.3
2011-03-21 09:46:45 51°34.463 2°45.551 24.1 11.1 18 20.3
2011-03-21 09:47:45 51°34.64 2°45.636 23.1 11.2 16 20
2011-03-21 09:48:45 51°34.818 2°45.723 24.1 11.2 17 18.2
2011-03-21 09:49:45 51°34.996 2°45.805 22.3 11.1 14 15.4
2011-03-21 09:50:45 51°35.173 2°45.892 23.7 11.1 17 15.8
2011-03-21 09:51:45 51°35.354 2°45.971 24.7 11.3 18 16
2011-03-21 09:52:45 51°35.535 2°46.051 23.7 11.3 15 15.4
2011-03-21 09:53:45 51°35.717 2°46.131 23.6 11.3 17 18.3
2011-03-21 09:54:45 51°35.899 2°46.214 23.4 11.4 16 16.9
2011-03-21 09:55:45 51°36.081 2°46.297 22.8 11.4 16 20
2011-03-21 09:56:45 51°36.264 2°46.384 23 11.5 15 18
2011-03-21 09:57:45 51°36.447 2°46.468 24 11.4 17 23
2011-03-21 09:58:45 51°36.629 2°46.558 25.8 11.4 20 21.6
2011-03-21 09:59:45 51°36.811 2°46.654 23.9 11.5 17 19.3
2011-03-21 10:00:45 51°36.992 2°46.747 24.4 11.4 19 23.6
2011-03-21 10:01:45 51°37.174 2°46.841 26.3 11.5 20 23.2
2011-03-21 10:02:45 51°37.354 2°46.94 25.6 11.4 21 24.2
2011-03-21 10:03:45 51°37.532 2°47.054 28.4 11.5 23 21.9
2011-03-21 10:04:45 51°37.705 2°47.176 28.1 11.5 23 23
2011-03-21 10:05:45 51°37.876 2°47.289 28.9 10.4 23 23
2011-03-21 10:06:45 51°38.031 2°47.396 28.6 10.1 23 22.6
2011-03-21 10:07:45 51°38.185 2°47.508 30.5 10 23 18.6
2011-03-21 10:08:45 51°38.338 2°47.614 26.9 10.1 18 18.4
2011-03-21 10:09:45 51°38.494 2°47.7 29.1 9.9 24 22.4
2011-03-21 10:10:45 51°38.646 2°47.811 27.9 10.1 22 20.8
2011-03-21 10:11:45 51°38.806 2°47.894 22.6 10.1 15 21.8
2011-03-21 10:12:45 51°38.964 2°47.986 26.6 10.2 21 22
2011-03-21 10:13:45 51°39.121 2°48.08 26.6 10 20 24.5
2011-03-21 10:14:45 51°39.28 2°48.169 24.7 10.2 18 20.5
2011-03-21 10:15:45 51°39.438 2°48.259 25.5 10 20 23
2011-03-21 10:16:45 51°39.59 2°48.371 29.3 10.1 24 21.8
2011-03-21 10:17:45 51°39.749 2°48.46 23.3 10.1 17 20.8
2011-03-21 10:18:45 51°39.906 2°48.553 26.6 10.1 19 15.8
2011-03-21 10:19:45 51°40.062 2°48.64 26.9 9.9 21 20.3
2011-03-21 10:20:44 51°40.215 2°48.746 27.7 10.3 24 25.7
2011-03-21 10:21:45 51°40.374 2°48.854 26.3 10.1 22 25.4
2011-03-21 10:22:44 51°40.531 2°48.941 23.3 10.2 20 26.8
2011-03-21 10:23:45 51°40.692 2°49.043 26.8 10.2 24 29.1
2011-03-21 10:24:45 51°40.851 2°49.139 24.5 10.3 22 27.2
2011-03-21 10:25:45 51°41.012 2°49.23 24.7 10.1 20 22.8
2011-03-21 10:26:45 51°41.17 2°49.33 26.8 10.3 22 24.9
2011-03-21 10:27:44 51°41.327 2°49.421 22 10.3 16 27.1
2011-03-21 10:28:45 51°41.494 2°49.494 20 10.3 16 31.1
2011-03-21 10:29:45 51°41.654 2°49.58 25.7 10.1 22 30.3
2011-03-21 10:30:45 51°41.806 2°49.696 35.1 10.2 34 30.6
2011-03-21 10:31:44 51°41.952 2°49.78 359.7 9.8 343 31
2011-03-21 10:32:45 51°42.072 2°49.565 309.5 11.6 300 29.5
2011-03-21 10:33:45 51°42.183 2°49.309 314.1 11.8 304 28.8
2011-03-21 10:34:45 51°42.293 2°49.048 315.1 11.8 305 24.3
2011-03-21 10:35:45 51°42.407 2°48.793 315.8 11.8 305 30
2011-03-21 10:36:45 51°42.516 2°48.533 311.8 11.7 297 31.3
2011-03-21 10:37:45 51°42.471 2°48.253 227.3 11.5 218 33.5
2011-03-21 10:38:45 51°42.267 2°48.12 198.1 14.6 200 33
2011-03-21 10:39:45 51°42.038 2°47.984 195 14.6 197 31.5
2011-03-21 10:40:45 51°41.804 2°47.873 194.2 14.7 196 33.4
2011-03-21 10:41:45 51°41.571 2°47.756 197 14.6 200 30.8
2011-03-21 10:42:45 51°41.344 2°47.609 199.7 14.6 201 33.1
2011-03-21 10:43:45 51°41.118 2°47.461 199.8 14.6 201 27.6
2011-03-21 10:44:45 51°40.89 2°47.319 200 14.7 201 33.9
2011-03-21 10:45:45 51°40.659 2°47.196 196 14.5 197 32.3
2011-03-21 10:46:45 51°40.429 2°47.07 196.6 14.5 197 35.4
2011-03-21 10:47:45 51°40.2 2°46.945 196.9 14.6 198 34.3
2011-03-21 10:48:45 51°39.971 2°46.822 196.8 14.6 198 34.2
2011-03-21 10:49:45 51°39.741 2°46.699 196.9 14.5 198 34.9
2011-03-21 10:50:45 51°39.511 2°46.575 196.6 14.6 198 34.6
2011-03-21 10:51:45 51°39.281 2°46.451 197.5 14.5 198 34.4
2011-03-21 10:52:45 51°39.05 2°46.329 196.5 14.6 198 34.6
2011-03-21 10:53:45 51°38.82 2°46.209 196.6 14.5 198 34.2
2011-03-21 10:54:45 51°38.591 2°46.089 197 14.4 198 34.3
2011-03-21 10:55:45 51°38.362 2°45.968 197.5 14.5 198 33.8
2011-03-21 10:56:45 51°38.134 2°45.848 197.2 14.5 198 34.4
2011-03-21 10:57:45 51°37.905 2°45.725 198.2 14.4 198 37
2011-03-21 10:58:45 51°37.677 2°45.603 197.7 14.4 198 35.1
2011-03-21 10:59:45 51°37.449 2°45.482 196.9 14.4 198 38.2
2011-03-21 11:00:45 51°37.221 2°45.362 197.1 14.4 198 36.3
2011-03-21 11:01:45 51°36.994 2°45.234 199.2 14.4 200 35.5
2011-03-21 11:02:45 51°36.768 2°45.104 199 14.4 200 36.7
2011-03-21 11:03:45 51°36.541 2°44.981 196.6 14.4 198 37.9
2011-03-21 11:04:45 51°36.313 2°44.865 196.7 14.4 198 39.9
2011-03-21 11:05:45 51°36.085 2°44.748 196.1 14.4 198 36.2
2011-03-21 11:06:45 51°35.857 2°44.631 196.1 14.4 198 36.3
2011-03-21 11:07:45 51°35.63 2°44.515 196.1 14.3 197 34.6
2011-03-21 11:08:45 51°35.404 2°44.394 199.4 14.3 200 34.5
2011-03-21 11:09:45 51°35.181 2°44.259 199.3 14.3 201 35.2
2011-03-21 11:10:45 51°34.956 2°44.127 198.2 14.4 200 35.5
2011-03-21 11:11:45 51°34.731 2°43.998 198.7 14.3 200 36.3
2011-03-21 11:12:45 51°34.505 2°43.869 197.5 14.4 200 35.6
2011-03-21 11:13:45 51°34.28 2°43.741 198.1 14.4 199 33.6
2011-03-21 11:14:45 51°34.054 2°43.61 199.1 14.3 200 33.6
2011-03-21 11:15:45 51°33.827 2°43.489 196.5 14.4 198 33.4
2011-03-21 11:16:45 51°33.6 2°43.374 196.7 14.3 199 33.6
2011-03-21 11:17:45 51°33.374 2°43.255 197.1 14.2 198 32.4
2011-03-21 11:18:45 51°33.151 2°43.131 203.3 14 208 32
2011-03-21 11:19:45 51°33.004 2°42.853 239.5 13.9 236 33.1
2011-03-21 11:20:45 51°32.876 2°42.542 239.3 14 236 34.4
2011-03-21 11:21:45 51°32.749 2°42.23 240.3 14 237 35.2
2011-03-21 11:22:45 51°32.621 2°41.919 239.5 14 237 38.2
2011-03-21 11:23:45 51°32.496 2°41.606 240.1 13.9 238 38.8
2011-03-21 11:24:45 51°32.371 2°41.292 239.5 13.9 238 38.2
2011-03-21 11:25:45 51°32.248 2°40.979 240.5 13.9 238 38.9
2011-03-21 11:26:45 51°32.124 2°40.666 240.1 13.9 238 38.3
2011-03-21 11:27:45 51°32.074 2°40.335 286.2 12.4 288 38
2011-03-21 11:28:45 51°32.244 2°40.234 3.7 12 3 40.1
2011-03-21 11:29:45 51°32.444 2°40.272 9.4 12.2 7 40.3
2011-03-21 11:30:45 51°32.645 2°40.315 9.6 12.2 9 40.3
2011-03-21 11:31:45 51°32.841 2°40.389 15.8 12.1 15 40.3
2011-03-21 11:32:45 51°33.028 2°40.509 26.5 12.2 27 40.9
2011-03-21 11:33:45 51°33.212 2°40.654 25.6 12.3 25 40.8
2011-03-21 11:34:45 51°33.397 2°40.794 25.6 12.2 26 40.9
2011-03-21 11:35:45 51°33.581 2°40.935 25.5 12.3 26 41.2
2011-03-21 11:36:44 51°33.762 2°41.076 25.5 12.3 26 41.8
2011-03-21 11:37:45 51°33.949 2°41.223 23.6 12.3 23 41.3
2011-03-21 11:38:45 51°34.143 2°41.332 17.8 12.3 18 41.5
2011-03-21 11:39:45 51°34.339 2°41.433 17.4 12.4 18 40.6
2011-03-21 11:40:45 51°34.537 2°41.533 17 12.5 17 41.4
2011-03-21 11:41:45 51°34.735 2°41.635 17.9 12.6 19 42.3
2011-03-21 11:42:45 51°34.936 2°41.735 16.8 12.7 17 42.7
2011-03-21 11:43:45 51°35.136 2°41.838 17.7 12.7 18 41.6
2011-03-21 11:44:45 51°35.337 2°41.942 18 12.7 19 42
2011-03-21 11:45:45 51°35.539 2°42.046 17.3 12.8 18 42.4
2011-03-21 11:46:45 51°35.74 2°42.149 17.7 12.6 17 43.5
2011-03-21 11:47:45 51°35.941 2°42.251 16.8 12.7 17 42.1
2011-03-21 11:48:45 51°36.142 2°42.354 17 12.7 18 43.8
2011-03-21 11:49:45 51°36.345 2°42.456 16.9 12.8 18 40
2011-03-21 11:50:45 51°36.546 2°42.559 17 12.7 18 40.6
2011-03-21 11:51:45 51°36.749 2°42.658 16.8 12.7 16 39.9
2011-03-21 11:52:45 51°36.951 2°42.759 17.1 12.7 17 38.2
2011-03-21 11:53:45 51°37.154 2°42.86 17.2 12.7 18 39.4
2011-03-21 11:54:44 51°37.352 2°42.961 17.1 12.8 17 39.2
2011-03-21 11:55:45 51°37.558 2°43.064 17.1 12.8 18 38.8
2011-03-21 11:56:45 51°37.761 2°43.165 17.4 12.8 16 38.8
2011-03-21 11:57:45 51°37.965 2°43.266 17.1 12.8 18 38.3
2011-03-21 11:58:45 51°38.17 2°43.366 17.6 12.9 18 38
2011-03-21 11:59:45 51°38.374 2°43.467 17.5 12.8 17 39.2
2011-03-21 12:00:45 51°38.579 2°43.568 17.3 12.9 17 38.9
2011-03-21 12:01:45 51°38.784 2°43.671 18.1 12.9 17 40.2
2011-03-21 12:02:45 51°38.99 2°43.771 16.8 12.9 16 37.5
2011-03-21 12:03:45 51°39.196 2°43.871 16.8 13 16 39.8
2011-03-21 12:04:45 51°39.403 2°43.971 16.9 13 17 37.7
2011-03-21 12:05:45 51°39.609 2°44.074 16.8 13 17 38.5
2011-03-21 12:06:45 51°39.817 2°44.176 17.5 13 18 39.7
2011-03-21 12:07:45 51°40.024 2°44.288 21.4 13.1 21 38
2011-03-21 12:08:45 51°40.228 2°44.42 21.6 13.2 22 38.2
2011-03-21 12:09:45 51°40.433 2°44.548 21.2 13.2 21 37
2011-03-21 12:10:45 51°40.638 2°44.675 21.5 13.2 21 39
2011-03-21 12:11:45 51°40.844 2°44.802 21.3 13.3 21 39.8
2011-03-21 12:12:44 51°41.047 2°44.927 21.4 13.3 21 39.7
2011-03-21 12:13:45 51°41.258 2°45.056 20.8 13.4 20 41.9
2011-03-21 12:14:44 51°41.462 2°45.181 21.4 13.4 21 41
2011-03-21 12:15:45 51°41.673 2°45.312 21.9 13.4 21 42.3
2011-03-21 12:16:45 51°41.882 2°45.44 21.6 13.3 21 35.8
2011-03-21 12:17:44 51°42.087 2°45.563 20.8 13.3 21 41.3
2011-03-21 12:18:45 51°42.298 2°45.695 20.8 13.4 20 44
2011-03-21 12:19:44 51°42.502 2°45.819 21.2 13.4 20 40.4
2011-03-21 12:20:45 51°42.715 2°45.947 20.5 13.4 20 41.4
2011-03-21 12:21:44 51°42.921 2°46.075 21.9 13.5 22 38
2011-03-21 12:22:45 51°43.134 2°46.208 21.2 13.5 21 36.4
2011-03-21 12:23:44 51°43.34 2°46.286 355.8 12.5 350 35.1
2011-03-21 12:24:45 51°43.492 2°46.067 308.4 12.6 307 40.6
2011-03-21 12:25:45 51°43.621 2°45.799 309 12.6 309 38.9
2011-03-21 12:26:45 51°43.753 2°45.535 309.4 12.6 308 35
2011-03-21 12:27:44 51°43.882 2°45.274 309.7 12.7 309 39.8
2011-03-21 12:28:44 51°44.016 2°45.01 310.1 12.7 310 39.7
2011-03-21 12:29:45 51°44.15 2°44.741 309.5 12.7 309 40.7
2011-03-21 12:30:44 51°44.282 2°44.483 310.3 12.7 309 41.6
2011-03-21 12:31:45 51°44.416 2°44.213 309.7 12.7 308 39.2
2011-03-21 12:32:45 51°44.478 2°43.923 261.7 11.4 252 40.1
2011-03-21 12:33:45 51°44.307 2°43.778 200.6 12.8 196 39.6
2011-03-21 12:34:44 51°44.101 2°43.723 184.7 12.9 179 37.6
2011-03-21 12:35:45 51°43.881 2°43.732 183.6 13 179 38.7
2011-03-21 12:36:45 51°43.665 2°43.738 183.7 12.9 180 41.3
2011-03-21 12:37:44 51°43.452 2°43.742 184.4 12.9 180 39.4
2011-03-21 12:38:45 51°43.232 2°43.743 184.8 13 181 35.8
2011-03-21 12:39:44 51°43.028 2°43.683 198.4 12.7 194 36.4
2011-03-21 12:40:45 51°42.824 2°43.581 203.6 12.6 198 36.4
2011-03-21 12:41:45 51°42.625 2°43.478 202.8 12.5 199 39.1
2011-03-21 12:42:45 51°42.427 2°43.375 203.1 12.5 198 37.4
2011-03-21 12:43:44 51°42.232 2°43.274 202.1 12.5 197 36.8
2011-03-21 12:44:45 51°42.031 2°43.174 202 12.4 197 37.6
2011-03-21 12:45:44 51°41.837 2°43.074 202.5 12.4 198 37.6
2011-03-21 12:46:45 51°41.636 2°42.974 201.2 12.4 196 37
2011-03-21 12:47:45 51°41.439 2°42.876 203 12.3 198 36.9
2011-03-21 12:48:45 51°41.243 2°42.781 201.9 12.3 197 37.7
2011-03-21 12:49:45 51°41.049 2°42.684 202.5 12.2 197 37.3
2011-03-21 12:50:44 51°40.86 2°42.589 202.6 12.1 197 35.5
2011-03-21 12:51:45 51°40.663 2°42.495 202.6 12.1 198 35.2
2011-03-21 12:52:44 51°40.472 2°42.406 202.6 12.1 197 35.1
2011-03-21 12:53:45 51°40.275 2°42.309 201.8 12.2 196 29.9
2011-03-21 12:54:45 51°40.083 2°42.216 201.9 12.2 196 33.5
2011-03-21 12:55:45 51°39.889 2°42.123 202.7 12.1 197 31.2
2011-03-21 12:56:44 51°39.699 2°42.034 202 12.1 195 29.9
2011-03-21 12:57:45 51°39.502 2°41.942 201.9 12.1 197 31.1
2011-03-21 12:58:45 51°39.309 2°41.854 202.2 12 197 27.6
2011-03-21 12:59:44 51°39.121 2°41.762 203.3 11.9 198 26.3
2011-03-21 13:00:45 51°38.932 2°41.653 204.8 11.9 199 23.4
2011-03-21 13:01:44 51°38.748 2°41.557 205.5 11.8 198 21.2
2011-03-21 13:02:44 51°38.563 2°41.465 208.7 11.5 202 22
2011-03-21 13:03:44 51°38.379 2°41.358 205.3 11.8 199 27
2011-03-21 13:04:44 51°38.192 2°41.257 204 11.9 198 26.7
2011-03-21 13:05:44 51°38.005 2°41.156 203.5 11.8 198 28
2011-03-21 13:06:45 51°37.816 2°41.055 204.5 11.8 199 24.7
2011-03-21 13:07:44 51°37.634 2°40.956 204.9 11.7 199 25.1
2011-03-21 13:08:44 51°37.448 2°40.857 203.6 11.8 198 25.1
2011-03-21 13:09:45 51°37.26 2°40.755 204.7 11.7 199 24.3
2011-03-21 13:10:45 51°37.075 2°40.656 203.7 11.8 198 24.8
2011-03-21 13:11:44 51°36.893 2°40.558 204 11.8 198 23.8
2011-03-21 13:12:45 51°36.706 2°40.453 204.3 11.7 199 24.8
2011-03-21 13:13:44 51°36.525 2°40.353 202.9 11.7 198 26.2
2011-03-21 13:14:45 51°36.337 2°40.251 203.4 11.8 198 27.5
2011-03-21 13:15:44 51°36.153 2°40.157 201.5 11.8 197 29.4
2011-03-21 13:16:45 51°35.965 2°40.061 202.4 11.7 197 29.3
2011-03-21 13:17:44 51°35.784 2°39.972 201.9 11.5 198 30.7
2011-03-21 13:18:45 51°35.599 2°39.876 201.4 11.5 197 31.1
2011-03-21 13:19:44 51°35.42 2°39.783 202.8 11.6 198 33.6
2011-03-21 13:20:45 51°35.235 2°39.69 201.2 11.4 196 30.4
2011-03-21 13:21:44 51°35.057 2°39.6 202.9 11.3 198 30.8
2011-03-21 13:22:45 51°34.873 2°39.509 202.5 11.4 197 31.2
2011-03-21 13:23:45 51°34.692 2°39.417 201.6 11.4 197 30.7
2011-03-21 13:24:44 51°34.515 2°39.324 201.5 11.4 197 29.6
2011-03-21 13:25:45 51°34.331 2°39.232 201.9 11.5 197 29.1
2011-03-21 13:26:44 51°34.152 2°39.139 202.3 11.5 197 29.7
2011-03-21 13:27:44 51°33.968 2°39.048 201.6 11.6 197 28.8
2011-03-21 13:28:44 51°33.785 2°38.953 202.1 11.6 198 27.3
2011-03-21 13:29:44 51°33.601 2°38.862 202.8 11.6 198 26
2011-03-21 13:30:44 51°33.431 2°38.784 200.4 8.7 192 22.4
2011-03-21 13:31:44 51°33.312 2°38.732 215.3 6.7 211 21
2011-03-21 13:32:45 51°33.264 2°38.584 259.2 6.4 270 25.7
2011-03-21 13:33:45 51°33.314 2°38.417 296.7 7.6 311 27.3
2011-03-21 13:34:45 51°33.432 2°38.304 327.5 8.9 342 32.1
2011-03-21 13:35:44 51°33.588 2°38.314 6.3 10.2 16 34.1
2011-03-21 13:36:44 51°33.74 2°38.443 34.7 10.6 38 33.8
2011-03-21 13:37:44 51°33.852 2°38.66 64 10.5 63 30.9
2011-03-21 13:38:45 51°33.888 2°38.929 99 9.9 92 27.3
2011-03-21 13:39:44 51°33.836 2°39.153 136.5 8.7 125 24.6
2011-03-21 13:40:45 51°33.727 2°39.275 175.9 7.4 164 20.5
2011-03-21 13:41:45 51°33.613 2°39.265 208.3 6.6 198 17.9
2011-03-21 13:42:44 51°33.487 2°39.141 219.4 11.2 216 18.7
2011-03-21 13:43:45 51°33.332 2°38.958 219.8 11.4 217 18.6
2011-03-21 13:44:44 51°33.18 2°38.793 210.7 11.4 206 20.5
2011-03-21 13:45:45 51°33.004 2°38.667 210 11.4 205 19.4
2011-03-21 13:46:44 51°32.837 2°38.541 210.1 11.3 205 18.3
2011-03-21 13:47:45 51°32.652 2°38.451 198.4 11.6 191 16.9
2011-03-21 13:48:44 51°32.467 2°38.385 200.2 11.6 193 16.7
2011-03-21 13:49:44 51°32.279 2°38.317 199.2 11.7 192 15.6
2011-03-21 13:50:44 51°32.091 2°38.252 198.5 11.7 191 16.5
2011-03-21 13:51:44 51°31.907 2°38.172 204.3 11.3 198 19.9
2011-03-21 13:52:45 51°31.725 2°38.075 204.2 11.4 197 19.7
2011-03-21 13:53:45 51°31.548 2°37.98 204.9 11.2 199 21.7
2011-03-21 13:54:44 51°31.371 2°37.894 203.8 11.3 197 21.8
2011-03-21 13:55:44 51°31.192 2°37.803 204.7 11.3 198 20.5
2011-03-21 13:56:45 51°31.01 2°37.718 203.6 11.3 196 18.8
2011-03-21 13:57:44 51°30.832 2°37.647 203.4 11 195 17.8
2011-03-21 13:58:45 51°30.655 2°37.552 203.9 11.2 197 23.5
2011-03-21 13:59:45 51°30.479 2°37.46 205.7 11.2 199 23.3
2011-03-21 14:00:44 51°30.303 2°37.371 204.5 11.2 199 26.3
2011-03-21 14:01:44 51°30.124 2°37.283 203.9 11.3 197 27.2
2011-03-21 14:02:44 51°29.947 2°37.191 204.3 11.2 197 26.9
2011-03-21 14:03:44 51°29.769 2°37.1 204.8 11.2 198 29
2011-03-21 14:04:44 51°29.594 2°37.013 204.9 11 198 28.8
2011-03-21 14:05:44 51°29.418 2°36.925 204.5 11.1 197 28.6
2011-03-21 14:06:44 51°29.241 2°36.839 203.2 11.1 194 27.5
2011-03-21 14:07:44 51°29.064 2°36.75 204.3 11.2 196 25.6
2011-03-21 14:08:45 51°28.881 2°36.759 163.5 12 145 33.1
2011-03-21 14:09:44 51°28.742 2°37.021 140 13.5 130 39.4
2011-03-21 14:10:45 51°28.593 2°37.299 141.1 13.4 133 40.7
2011-03-21 14:11:44 51°28.433 2°37.531 150.4 13 141 38.4
2011-03-21 14:12:45 51°28.262 2°37.752 151.2 13 141 40.3
2011-03-21 14:13:44 51°28.097 2°37.962 151.8 12.7 144 42
2011-03-21 14:14:45 51°27.926 2°38.177 149.5 12.9 142 38
2011-03-21 14:15:44 51°27.762 2°38.388 150.4 12.8 141 35
2011-03-21 14:16:45 51°27.594 2°38.607 151.1 12.7 142 36
2011-03-21 14:17:45 51°27.432 2°38.825 150.9 12.7 141 37.1
2011-03-21 14:18:45 51°27.269 2°39.042 150.5 12.7 141 37.8
2011-03-21 14:19:45 51°27.108 2°39.265 148.9 12.9 136 36.7
2011-03-21 14:20:45 51°26.964 2°39.527 142.3 13.2 131 36
2011-03-21 14:21:44 51°26.82 2°39.783 141.6 13.3 130 34.8
2011-03-21 14:22:44 51°26.674 2°40.046 142.4 13.2 131 34
2011-03-21 14:23:45 51°26.524 2°40.312 142.3 13.2 132 34.8
2011-03-21 14:24:44 51°26.378 2°40.569 141.8 13.2 133 35.4
2011-03-21 14:25:44 51°26.221 2°40.809 146.4 13.1 136 33.4
2011-03-21 14:26:44 51°26.064 2°41.047 147.1 13 137 32.1
2011-03-21 14:27:44 51°25.903 2°41.28 147.3 13 139 28.7
2011-03-21 14:28:44 51°25.74 2°41.506 147.6 13 139 28.6
2011-03-21 14:29:44 51°25.582 2°41.74 146.2 12.9 139 30.1
2011-03-21 14:30:44 51°25.423 2°41.972 145.8 12.9 139 29.6
2011-03-21 14:31:44 51°25.264 2°42.204 146.6 12.9 138 29.5
2011-03-21 14:32:45 51°25.102 2°42.44 146 12.8 139 27.5
2011-03-21 14:33:44 51°24.945 2°42.668 145.9 13.1 137 24.1
2011-03-21 14:34:45 51°24.784 2°42.909 145.8 13.1 138 23.9
2011-03-21 14:35:45 51°24.613 2°43.11 152.2 12.8 144 24.8
2011-03-21 14:36:44 51°24.443 2°43.309 153.3 12.9 144 27.1
2011-03-21 14:37:45 51°24.27 2°43.52 151.6 12.9 142 27
2011-03-21 14:38:44 51°24.1 2°43.723 152.4 13 143 30
2011-03-21 14:39:45 51°23.925 2°43.932 152.1 13 143 28.8
2011-03-21 14:40:44 51°23.754 2°44.137 151.8 13.1 142 29.9
2011-03-21 14:41:45 51°23.577 2°44.344 153.7 12.9 145 30.8
2011-03-21 14:42:44 51°23.405 2°44.542 151.8 13 144 30
2011-03-21 14:43:44 51°23.229 2°44.739 152.3 13 145 28.8
2011-03-21 14:44:44 51°23.055 2°44.943 152.4 12.9 144 29.8
2011-03-21 14:45:44 51°22.882 2°45.145 153.1 12.9 144 28.8
2011-03-21 14:46:44 51°22.714 2°45.273 181.7 9.6 180 29.5
2011-03-21 14:47:44 51°22.581 2°45.168 216.9 9 214 25.3
2011-03-21 14:48:45 51°22.442 2°45.06 208.3 9.8 205 26.8
2011-03-21 14:49:44 51°22.271 2°44.942 204 11.8 202 27.2
2011-03-21 14:50:44 51°22.077 2°44.917 177.3 12.2 171 26.1
2011-03-21 14:51:44 51°21.884 2°45.039 158 12.8 148 25.8
2011-03-21 14:52:45 51°21.712 2°45.261 147.8 13.2 140 25.7
2011-03-21 14:53:44 51°21.558 2°45.504 142.2 13.2 134 27.7
2011-03-21 14:54:44 51°21.4 2°45.752 143.5 13.4 135 28.8
2011-03-21 14:55:45 51°21.249 2°46.022 140.4 13.2 133 28.8
2011-03-21 14:56:44 51°21.104 2°46.278 140.9 13.1 133 28.3
2011-03-21 14:57:45 51°20.948 2°46.528 145.7 13 139 26.9
2011-03-21 14:58:44 51°20.787 2°46.753 143.6 13.2 137 23.8
2011-03-21 14:59:45 51°20.618 2°46.989 145.7 13.2 140 21.8
2011-03-21 15:00:44 51°20.455 2°47.214 145.1 13.2 139 21.3
2011-03-21 15:01:44 51°20.289 2°47.442 145.8 13.2 139 22.7
2011-03-21 15:02:44 51°20.126 2°47.674 145.1 13.2 139 24.6
2011-03-21 15:03:45 51°19.958 2°47.906 145.3 13.1 138 25.2
2011-03-21 15:04:44 51°19.796 2°48.131 144.8 13.2 138 25.1
2011-03-21 15:05:45 51°19.63 2°48.366 144.9 13.1 138 23.8
2011-03-21 15:06:45 51°19.467 2°48.595 145.2 13.1 139 21.1
2011-03-21 15:07:45 51°19.306 2°48.825 144.1 12.9 138 18.9
2011-03-21 15:08:44 51°19.147 2°49.046 144.5 13 138 15.9
2011-03-21 15:09:44 51°18.982 2°49.269 144.6 13 140 15.1
2011-03-21 15:10:45 51°18.814 2°49.492 144.3 12.8 140 13.5
2011-03-21 15:11:44 51°18.65 2°49.707 145.4 13 140 14.4
2011-03-21 15:12:44 51°18.484 2°49.928 145.2 13 140 16.6
2011-03-21 15:13:44 51°18.317 2°50.148 145.2 13.1 141 17
2011-03-21 15:14:44 51°18.151 2°50.373 145.3 13.1 140 16.6
2011-03-21 15:15:44 51°17.984 2°50.594 146 12.9 140 15.7
2011-03-21 15:16:45 51°17.818 2°50.819 146.2 12.8 140 14.7
2011-03-21 15:17:44 51°17.658 2°51.037 144.7 12.8 139 12.8
2011-03-21 15:18:44 51°17.497 2°51.262 144.5 12.8 138 11.3
2011-03-21 15:19:44 51°17.334 2°51.483 145.5 13 140 13.6
2011-03-21 15:20:44 51°17.167 2°51.701 146.4 13 140 14
2011-03-21 15:21:44 51°17.001 2°51.921 145 13 141 13.5
2011-03-21 15:22:44 51°16.833 2°52.141 144.2 12.9 139 13.7
2011-03-21 15:23:45 51°16.662 2°52.364 146 13.1 140 13.8
2011-03-21 15:24:45 51°16.499 2°52.594 143.1 13.2 136 14.3
2011-03-21 15:25:44 51°16.337 2°52.821 145.8 13.1 140 14.7
2011-03-21 15:26:45 51°16.166 2°53.038 147.9 13 142 14.6
2011-03-21 15:27:44 51°15.997 2°53.245 147.6 13 143 14.3
2011-03-21 15:28:44 51°15.826 2°53.459 148.2 13.1 143 14.4
2011-03-21 15:29:44 51°15.654 2°53.674 147.4 13.1 143 14.5
2011-03-21 15:30:45 51°15.475 2°53.885 147 13.2 143 14.1
2011-03-21 15:31:44 51°15.301 2°54.09 148 13.2 144 13.8
2011-03-21 15:32:44 51°15.124 2°54.291 148.3 13 145 13.4
2011-03-21 15:33:44 51°14.955 2°54.508 145.4 13 140 13.3
2011-03-21 15:34:44 51°14.786 2°54.715 148.4 12.7 143 13.9
2011-03-21 15:35:44 51°14.614 2°54.91 149.2 12.7 146 13.8
2011-03-21 15:36:44 51°14.44 2°55.102 144.3 12.7 144 13.2
2011-03-21 15:37:44 51°14.265 2°55.29 146.7 12.6 147 12.8
2011-03-21 15:38:44 51°14.118 2°55.412 155.2 7.7 155 12.9
2011-03-21 15:39:45 51°14.03 2°55.476 156 5.1 155 13.1
2011-03-21 15:40:44 51°13.956 2°55.528 157.6 4.8 157 13.1
2011-03-21 15:41:44 51°13.884 2°55.581 155.3 4.7 154 13.1
2011-03-21 15:42:45 51°13.814 2°55.64 151 4.7 149 13.3
2011-03-21 15:43:44 51°13.756 2°55.711 137.4 4 136 13.3
2011-03-21 15:44:44 51°13.718 2°55.785 126.6 3.3 125 13.5
2011-03-21 15:45:44 51°13.693 2°55.849 122.1 2.5 122 11.4
2011-03-21 15:46:44 51°13.675 2°55.897 111.3 1.8 116 11.1
2011-03-21 15:47:45 51°13.667 2°55.937 101 1.1 92 10.7
2011-03-21 15:48:44 51°13.663 2°55.957 113.5 1 118 9.9